新千歳空港の過去48時間の天気

新千歳空港 (Sapporo/New Chitose)

現在時刻: 9/23 06:26 JST (9/22 21:26 UTC) 以下の時間は現地時間です。

過去48時間のMETAR気象情報
時間 風向 風速(m/s) 視程 気温(℃) 湿度(%) 気圧(hPa) 天気現象
23 06:00 3 10km以上 12 94 1017 弱いしゅう雨
23 05:30 北西 2 10km以上 12 94 1017 弱いしゅう雨
23 05:00 北北西 2 10km以上 12 94 1017 弱いしゅう雨
23 04:30 2 10km以上 11 100 1017
23 04:00 1 10km以上 11 100 1018
23 03:30 2 10km以上 11 100 1018
23 03:00 2 10km以上 11 100 1018
23 02:30 2 10km以上 11 94 1018
23 02:00 2 10km以上 11 100 1018
23 01:30 2 10km以上 11 94 1019
23 01:00 2 10km以上 11 94 1019
23 00:30 2 10km以上 11 94 1019
23 00:00 2 10km以上 11 94 1019
22 23:30 2 10km以上 12 88 1020
22 23:00 2 10km以上 12 88 1020
22 22:30 2 10km以上 12 94 1020
22 22:00 北北西 3 10km以上 12 88 1020
22 21:30 北西 3 10km以上 13 88 1020
22 21:00 北西 3 10km以上 13 88 1021
22 20:30 北北西 3 10km以上 14 82 1020
22 20:00 2 10km以上 13 88 1021
22 19:30 2 10km以上 14 82 1021
22 19:00 3 10km以上 14 82 1021
22 18:30 3 10km以上 15 82 1020
22 18:00 3 10km以上 15 82 1020
22 17:30 4 10km以上 16 72 1020
22 17:00 4 10km以上 17 72 1020
22 16:30 5 10km以上 18 68 1020
22 16:00 6 10km以上 18 68 1020
22 15:30 6 10km以上 19 64 1019
22 15:00 6 10km以上 20 64 1019
22 14:30 6 10km以上 20 64 1019
22 14:00 北北西 6 10km以上 20 68 1019
22 13:30 5 10km以上 20 64 1019
22 13:19 7 10km以上 20 68 1019
22 13:00 北北東 2 10km以上 21 64 1019
22 12:30 4 10km以上 20 68 1020
22 12:00 不定 1 10km以上 20 68 1020
22 11:30 不定 2 10km以上 20 68 1020
22 11:00 南南東 3 10km以上 20 73 1020
22 10:30 3 10km以上 19 78 1020
22 10:00 3 10km以上 19 78 1020
22 09:30 3 10km以上 18 83 1021
22 09:00 南東 2 10km以上 17 83 1021
22 08:30 3 10km以上 16 88 1021
22 08:00 南南東 2 10km以上 16 82 1021
22 07:30 5 10km以上 15 88 1021
22 07:00 3 10km以上 14 88 1021
22 06:30 2 10km以上 13 94 1021
22 06:00 3 10km以上 12 100 1021
22 05:30 不定 1 10km以上 13 88 1021
22 05:00 不定 1 10km以上 12 94 1021
22 04:30 不定 1 10km以上 12 94 1020
RJCC 222100Z 36005KT 9999 -SHRA FEW010 BKN025 BKN100 12/11 Q1017 RMK 1ST010 6CU025 7AC100 A3004
RJCC 222030Z 31004KT 210V350 9999 -SHRA FEW020 BKN030 BKN100 12/11 Q1017 RMK 1CU020 6CU030 7AC100 A3005
RJCC 222000Z 33004KT 9999 -SHRA FEW020 SCT040 BKN130 12/11 Q1017 RMK 1CU020 3CU040 7AC130 A3005
RJCC 221930Z 35003KT 9999 FEW020 BKN150 11/11 Q1017 RMK 1CU020 7AC150 A3006
RJCC 221900Z 36002KT 9999 FEW020 BKN150 BKN/// 11/11 Q1018 RMK 1CU020 5AC150 A3007
RJCC 221830Z 35004KT 9999 FEW020 BKN/// 11/11 Q1018 RMK 1CU020 A3007
RJCC 221800Z 35004KT 9999 FEW020 BKN/// 11/11 Q1018 RMK 1CU020 A3008
RJCC 221730Z 35003KT 9999 FEW020 BKN/// 11/10 Q1018 RMK 1CU020 A3008
RJCC 221700Z 36004KT 9999 FEW020 BKN/// 11/11 Q1018 RMK 1CU020 A3008
RJCC 221630Z 36004KT 9999 FEW020 BKN/// 11/10 Q1019
RJCC 221600Z 36004KT 9999 FEW020 BKN/// 11/10 Q1019
RJCC 221530Z 36004KT 9999 FEW020 BKN/// 11/10 Q1019
RJCC 221500Z 36004KT 9999 FEW020 BKN/// 11/10 Q1019 RMK 1CU020 A3012
RJCC 221430Z 36003KT 9999 FEW020 BKN/// 12/10 Q1020 RMK 1CU020 A3012
RJCC 221400Z 36004KT 9999 FEW020 BKN/// 12/10 Q1020 RMK 1CU020 A3012
RJCC 221330Z 35004KT 9999 FEW020 BKN/// 12/11 Q1020
RJCC 221300Z 34006KT 9999 FEW020 BKN/// 12/10 Q1020 RMK 1CU020 A3013
RJCC 221230Z 31005KT 9999 FEW020 BKN/// 13/11 Q1020
RJCC 221200Z 32005KT 290V010 9999 FEW020 BKN/// 13/11 Q1021 RMK 1CU020 A3015
RJCC 221130Z 33006KT 9999 FEW020 BKN/// 14/11 Q1020 RMK 1CU020 A3015 LGT TO MOD TURB OBS AT 1110Z 60NM SW RJCC BTN FL170 AND FL160 IN DES B738
RJCC 221100Z 35004KT 9999 FEW020 BKN/// 13/11 Q1021 RMK 1CU020 A3016
RJCC 221030Z 01003KT 9999 FEW020 BKN/// 14/11 Q1021 RMK 1CU020 A3016
RJCC 221000Z 01005KT 9999 FEW020 BKN/// 14/11 Q1021
RJCC 220930Z 36006KT 9999 FEW020 BKN/// 15/12 Q1020
RJCC 220900Z 35006KT 9999 FEW020 BKN/// 15/12 Q1020
RJCC 220830Z 35007KT 9999 FEW020 BKN/// 16/11 Q1020 RMK 1CU020 A3014
RJCC 220800Z 35008KT 9999 FEW020 BKN/// 17/12 Q1020 RMK 1CU020 A3013
RJCC 220730Z 35010KT 9999 FEW020 BKN/// 18/12 Q1020 RMK 1CU020 A3013
RJCC 220700Z 35012KT 9999 FEW020 BKN/// 18/12 Q1020 RMK 1CU020 A3012
RJCC 220630Z 35012KT 9999 FEW020 BKN/// 19/12 Q1019 RMK 1CU020 A3011
RJCC 220600Z 35012KT 9999 FEW020 SCT030 BKN/// 20/13 Q1019 RMK 1CU020 3CU030 A3011
RJCC 220530Z 35011KT 9999 FEW020 SCT030 BKN/// 20/13 Q1019 RMK 1CU020 4CU030 A3010
RJCC 220500Z 34011KT 9999 FEW020 SCT030 BKN/// 20/14 Q1019
RJCC 220430Z 35009KT 9999 FEW020 BKN030 BKN/// 20/13 Q1019 RMK 1CU020 5CU030 A3011
RJCC 220419Z 35014KT 9999 FEW020 BKN030 BKN/// 20/14 Q1019 RMK 1CU020 5CU030 A3011
RJCC 220400Z 02004KT 320V060 9999 FEW020 SCT030 BKN/// 21/14 Q1019 RMK 1CU020 4CU030 A3011
RJCC 220330Z 36007KT 9999 FEW018 SCT030 BKN/// 20/14 Q1020
RJCC 220300Z VRB02KT 9999 FEW018 BKN030 BKN/// 20/14 Q1020 RMK 1ST018 5CU030 A3013
RJCC 220230Z VRB04KT 9999 FEW018 BKN030 BKN/// 20/14 Q1020
RJCC 220200Z 15005KT 9999 FEW018 SCT020 BKN/// 20/15 Q1020 RMK 1ST018 3CU020 A3014
RJCC 220130Z 17006KT 140V210 9999 FEW018 BKN/// 19/15 Q1020
RJCC 220100Z 17005KT 9999 FEW025 BKN/// 19/15 Q1020 RMK 1CU025 A3014
RJCC 220030Z 17005KT 9999 FEW025 BKN/// 18/15 Q1021
RJCC 220000Z 13003KT 9999 FEW025 BKN/// 17/14 Q1021 RMK 1CU025 A3015
RJCC 212330Z 17005KT 9999 FEW030 BKN/// 16/14 Q1021 RMK 1CU030 A3016
RJCC 212300Z 15004KT 9999 FEW030 BKN/// 16/13 Q1021 RMK 1CU030 A3016
RJCC 212230Z 17009KT 9999 FEW020 BKN/// 15/13 Q1021
RJCC 212200Z 18006KT 9999 FEW020 BKN/// 14/12 Q1021 RMK 1CU020 A3016
RJCC 212130Z 19004KT 9999 FEW020 BKN/// 13/12 Q1021 RMK 1CU020 A3016
RJCC 212100Z 17005KT 9999 FEW010 BKN/// 12/12 Q1021 RMK 1ST010 A3016
RJCC 212030Z VRB02KT 9999 FEW010 BKN/// 13/11 Q1021 RMK 1ST010 A3015
RJCC 212000Z VRB01KT 9999 FEW015 SCT025 BKN/// 12/11 Q1021 RMK 1ST015 4CU025 A3015
RJCC 211930Z VRB01KT 9999 FEW020 SCT030 BKN/// 12/11 Q1020 RMK 1CU020 3CU030 A3014